Time;durP1;ratioP1;P1;durP2;ratioP2;P2;SDS_P1;SDS_P2;PMS_P1;PMS_P2;Temp;Humidity;BMP_temperature;BMP_pressure;BME280_temperature;BME280_humidity;BME280_pressure;Samples;Min_cycle;Max_cycle;Signal;HPM_P1;HPM_P2
2024/01/21 00:02:21;;;;;;;11.07;4.97;;;;;;;-3.36;88.02;102553.81;4982371;28;20515;-64
2024/01/21 00:04:47;;;;;;;15.82;5.18;;;;;;;-3.37;87.56;102553.59;4978898;28;20085;-65
2024/01/21 00:07:12;;;;;;;12.40;5.45;;;;;;;-3.38;87.89;102551.75;4979350;28;20063;-68
2024/01/21 00:09:38;;;;;;;18.10;5.47;;;;;;;-3.43;87.87;102546.03;4979636;28;20081;-66
2024/01/21 00:12:04;;;;;;;14.73;5.33;;;;;;;-3.46;87.93;102548.22;4979668;28;20562;-64
2024/01/21 00:14:29;;;;;;;14.48;4.82;;;;;;;-3.46;87.94;102548.22;4993867;28;20045;-66
2024/01/21 00:16:54;;;;;;;12.03;5.00;;;;;;;-3.49;87.38;102541.00;4979480;28;20050;-67
2024/01/21 00:19:30;;;;;;;15.10;5.40;;;;;;;-3.49;87.83;102532.34;4978442;28;20034;-66
2024/01/21 00:21:55;;;;;;;14.82;5.03;;;;;;;-3.50;87.32;102531.41;4980255;28;20062;-66
2024/01/21 00:24:24;;;;;;;14.97;5.50;;;;;;;-3.54;87.43;102529.19;4980518;28;20061;-66
2024/01/21 00:26:58;;;;;;;12.00;5.05;;;;;;;-3.52;87.62;102537.13;4979080;28;20031;-66
2024/01/21 00:29:24;;;;;;;12.20;4.40;;;;;;;-3.54;87.02;102538.59;4978629;28;20049;-67
2024/01/21 00:31:49;;;;;;;11.67;4.43;;;;;;;-3.56;87.63;102532.31;4978580;28;20342;-65
2024/01/21 00:34:15;;;;;;;11.77;4.50;;;;;;;-3.59;87.28;102529.34;4984777;28;20043;-65
2024/01/21 00:36:40;;;;;;;17.33;4.83;;;;;;;-3.57;86.89;102533.06;4977736;28;20046;-68
2024/01/21 00:39:06;;;;;;;16.53;5.07;;;;;;;-3.60;87.43;102525.84;4978196;28;20050;-65
2024/01/21 00:41:31;;;;;;;12.38;4.70;;;;;;;-3.63;87.35;102527.13;4978272;28;20514;-65
2024/01/21 00:43:57;;;;;;;10.77;4.53;;;;;;;-3.65;87.12;102526.03;4977724;28;20039;-65
2024/01/21 00:46:22;;;;;;;13.82;5.05;;;;;;;-3.69;87.08;102528.91;4978107;28;20045;-69
2024/01/21 00:48:47;;;;;;;15.30;4.90;;;;;;;-3.72;87.34;102510.47;4977869;28;20147;-67
2024/01/21 00:51:13;;;;;;;11.00;4.17;;;;;;;-3.72;87.34;102515.66;4975840;28;20026;-72
2024/01/21 00:53:38;;;;;;;11.70;4.87;;;;;;;-3.75;86.91;102515.28;4977546;28;20042;-66
2024/01/21 00:56:04;;;;;;;15.03;5.47;;;;;;;-3.78;86.63;102512.28;4978015;28;20038;-67
2024/01/21 00:58:29;;;;;;;12.73;4.90;;;;;;;-3.82;86.89;102512.66;4979089;28;20041;-68
2024/01/21 01:00:55;;;;;;;15.10;5.17;;;;;;;-3.85;86.57;102509.69;4980009;28;20049;-65
2024/01/21 01:03:20;;;;;;;14.43;5.30;;;;;;;-3.87;86.77;102509.50;4977613;28;20038;-67
2024/01/21 01:05:46;;;;;;;12.90;5.28;;;;;;;-3.87;86.66;102514.66;4967150;28;20062;-67
2024/01/21 01:08:11;;;;;;;20.50;5.67;;;;;;;-3.88;87.12;102507.63;4964554;28;20780;-70
2024/01/21 01:10:36;;;;;;;12.40;5.33;;;;;;;-3.88;86.20;102497.31;4964130;28;20034;-67
2024/01/21 01:13:02;;;;;;;12.50;5.03;;;;;;;-3.87;86.56;102498.22;4964476;28;20042;-67
2024/01/21 01:15:27;;;;;;;12.67;4.63;;;;;;;-3.87;86.42;102505.97;4964274;28;20059;-68
2024/01/21 01:17:52;;;;;;;13.47;4.97;;;;;;;-3.89;86.81;102499.69;4963907;28;20046;-70
2024/01/21 01:20:18;;;;;;;12.97;4.77;;;;;;;-3.89;86.08;102500.63;4963414;28;20306;-72
2024/01/21 01:22:43;;;;;;;13.73;4.80;;;;;;;-3.90;86.40;102508.19;4963713;28;20521;-68
2024/01/21 01:25:09;;;;;;;12.87;5.57;;;;;;;-3.95;86.18;102500.75;4963928;28;20110;-65
2024/01/21 01:27:34;;;;;;;10.75;4.15;;;;;;;-3.95;86.42;102503.34;4963733;28;20119;-67
2024/01/21 01:30:00;;;;;;;19.17;5.40;;;;;;;-3.96;86.33;102498.94;4963665;28;20445;-65
2024/01/21 01:32:25;;;;;;;10.20;4.20;;;;;;;-4.01;86.09;102492.28;4963726;28;20125;-67
2024/01/21 01:34:54;;;;;;;11.93;4.00;;;;;;;-4.02;86.53;102497.25;4970058;28;20560;-66
2024/01/21 01:37:20;;;;;;;13.57;4.53;;;;;;;-4.03;86.35;102498.91;4964226;28;20125;-68
2024/01/21 01:39:45;;;;;;;12.60;4.70;;;;;;;-4.04;85.97;102498.69;4972011;28;20125;-67
2024/01/21 01:42:10;;;;;;;13.83;4.63;;;;;;;-4.04;86.30;102498.69;4971840;28;20252;-66
2024/01/21 01:44:40;;;;;;;15.27;5.30;;;;;;;-4.05;85.90;102490.06;4963410;28;20693;-68
2024/01/21 01:47:07;;;;;;;12.90;5.18;;;;;;;-4.07;85.93;102493.16;4963832;28;20122;-66
2024/01/21 01:49:32;;;;;;;13.90;5.25;;;;;;;-4.09;86.17;102494.59;4963205;28;20042;-71
2024/01/21 01:51:58;;;;;;;11.97;5.00;;;;;;;-4.14;86.08;102490.53;4963299;28;20064;-64
2024/01/21 01:54:28;;;;;;;13.07;4.67;;;;;;;-4.19;85.88;102477.03;4963494;28;20168;-69
2024/01/21 01:56:53;;;;;;;13.20;4.72;;;;;;;-4.19;86.09;102491.63;4962808;28;20042;-69
2024/01/21 01:59:19;;;;;;;12.50;4.70;;;;;;;-4.23;86.25;102479.03;4964625;28;20078;-65
2024/01/21 02:01:45;;;;;;;12.90;4.85;;;;;;;-4.24;86.68;102478.13;4966064;28;20038;-64
2024/01/21 02:04:11;;;;;;;15.10;5.13;;;;;;;-4.25;86.44;102473.72;4962918;28;20046;-64
2024/01/21 02:06:38;;;;;;;12.37;4.27;;;;;;;-4.25;86.70;102470.22;4963276;28;20100;-65
2024/01/21 02:09:04;;;;;;;13.57;5.60;;;;;;;-4.26;86.55;102477.03;4963149;28;20088;-69
2024/01/21 02:11:29;;;;;;;13.98;5.55;;;;;;;-4.28;86.02;102473.31;4963062;28;20521;-65
2024/01/21 02:13:54;;;;;;;12.83;5.00;;;;;;;-4.27;86.04;102477.75;4963582;28;20829;-69
2024/01/21 02:16:20;;;;;;;15.80;5.27;;;;;;;-4.29;85.92;102476.63;4962488;28;20168;-63
2024/01/21 02:18:47;;;;;;;13.65;5.30;;;;;;;-4.28;85.86;102478.47;4962656;28;20046;-70
2024/01/21 02:21:12;;;;;;;12.67;4.13;;;;;;;-4.28;85.73;102473.31;4963202;28;20039;-68
2024/01/21 02:23:38;;;;;;;14.13;4.63;;;;;;;-4.24;85.37;102475.53;4963490;28;20062;-63
2024/01/21 02:26:04;;;;;;;12.90;5.03;;;;;;;-4.25;85.36;102468.56;4972873;28;20373;-66
2024/01/21 02:28:29;;;;;;;12.33;5.30;;;;;;;-4.22;84.73;102468.00;4964829;28;20411;-71
2024/01/21 02:34:20;;;;;;;13.87;4.97;;;;;;;-4.18;84.53;102463.41;4970460;28;20037;-64
2024/01/21 02:36:46;;;;;;;10.48;4.60;;;;;;;-4.16;84.54;102458.47;4964963;28;20035;-65
2024/01/21 02:39:12;;;;;;;15.65;4.63;;;;;;;-4.16;84.22;102461.03;4965263;28;20050;-63
2024/01/21 02:41:37;;;;;;;15.63;5.73;;;;;;;-4.16;84.46;102459.38;4963596;28;20027;-65
2024/01/21 02:44:02;;;;;;;10.37;3.97;;;;;;;-4.19;83.93;102451.25;4966462;28;20208;-63
2024/01/21 02:46:28;;;;;;;12.40;4.47;;;;;;;-4.19;83.66;102445.19;4965399;28;20035;-65
2024/01/21 02:48:53;;;;;;;10.80;4.87;;;;;;;-4.20;83.49;102445.91;4959358;28;20553;-68
2024/01/21 02:51:18;;;;;;;12.77;3.93;;;;;;;-4.22;83.92;102449.94;4965049;28;20381;-63
2024/01/21 02:53:44;;;;;;;11.13;4.20;;;;;;;-4.26;83.30;102443.47;4964768;28;20550;-64
2024/01/21 02:56:20;;;;;;;10.23;4.10;;;;;;;-4.30;83.49;102437.75;4964793;28;20046;-68
2024/01/21 02:58:46;;;;;;;13.68;4.38;;;;;;;-4.32;83.60;102432.38;4966815;28;20037;-65
2024/01/21 03:01:11;;;;;;;11.67;4.47;;;;;;;-4.33;83.88;102429.59;4968171;28;20544;-66
2024/01/21 03:03:36;;;;;;;13.50;3.90;;;;;;;-4.36;83.28;102430.16;4964946;28;20114;-66
2024/01/21 03:06:02;;;;;;;9.40;3.77;;;;;;;-4.37;83.06;102439.56;4965542;28;20153;-65
2024/01/21 03:08:27;;;;;;;10.43;4.00;;;;;;;-4.38;82.95;102434.19;4965638;28;20293;-67
2024/01/21 03:10:53;;;;;;;12.10;3.90;;;;;;;-4.41;82.88;102432.16;4964934;28;20130;-66
2024/01/21 03:13:18;;;;;;;10.60;4.80;;;;;;;-4.44;82.70;102436.91;4965402;28;20061;-65
2024/01/21 03:15:44;;;;;;;15.73;4.23;;;;;;;-4.42;83.33;102442.28;4964607;28;20043;-64
2024/01/21 03:18:09;;;;;;;12.50;5.20;;;;;;;-4.44;83.03;102447.22;4964921;28;20477;-71
2024/01/21 03:20:35;;;;;;;12.93;4.37;;;;;;;-4.43;82.87;102440.41;4963320;28;20085;-67
2024/01/21 03:23:00;;;;;;;10.50;3.80;;;;;;;-4.41;82.82;102447.63;4965246;28;20516;-64
2024/01/21 03:25:25;;;;;;;8.30;3.27;;;;;;;-4.41;82.84;102446.72;4964567;28;20373;-71
2024/01/21 03:27:51;;;;;;;10.83;3.73;;;;;;;-4.42;82.74;102444.84;4964788;28;20469;-65
2024/01/21 03:30:16;;;;;;;9.53;4.03;;;;;;;-4.43;82.20;102443.94;4964755;28;20039;-64
2024/01/21 03:32:41;;;;;;;11.73;4.37;;;;;;;-4.43;82.37;102455.91;4964641;28;20584;-69
2024/01/21 03:35:07;;;;;;;10.80;4.10;;;;;;;-4.43;82.21;102459.41;4969283;28;20121;-65
2024/01/21 03:37:32;;;;;;;11.53;4.23;;;;;;;-4.41;81.97;102457.03;4962003;28;20699;-72
2024/01/21 03:39:58;;;;;;;10.00;4.20;;;;;;;-4.41;81.73;102455.38;4963883;28;20434;-68
2024/01/21 03:42:23;;;;;;;9.77;4.00;;;;;;;-4.39;81.45;102455.56;4964478;28;20062;-67
2024/01/21 03:44:49;;;;;;;12.68;4.28;;;;;;;-4.37;81.99;102457.59;4963692;28;20061;-66
2024/01/21 03:47:15;;;;;;;15.07;4.67;;;;;;;-4.33;81.91;102450.25;4963804;28;20066;-65
2024/01/21 03:49:40;;;;;;;8.33;3.47;;;;;;;-4.33;81.33;102453.75;4963712;28;20034;-68
2024/01/21 03:52:05;;;;;;;9.50;4.07;;;;;;;-4.30;81.68;102454.16;4964064;28;20039;-67
2024/01/21 03:54:31;;;;;;;11.20;4.23;;;;;;;-4.32;81.54;102447.88;4959582;28;20302;-65
2024/01/21 03:56:56;;;;;;;10.90;4.27;;;;;;;-4.32;81.58;102445.28;4963256;28;20562;-67
2024/01/21 03:59:21;;;;;;;12.57;4.40;;;;;;;-4.31;81.59;102448.78;4965852;28;20041;-65
2024/01/21 04:01:47;;;;;;;10.50;4.17;;;;;;;-4.31;81.18;102449.72;4962493;28;20479;-64
2024/01/21 04:04:12;;;;;;;11.48;4.50;;;;;;;-4.29;81.39;102452.50;4970926;28;20050;-67
2024/01/21 04:06:42;;;;;;;11.60;4.60;;;;;;;-4.28;80.77;102442.34;4963754;28;20058;-65
2024/01/21 04:09:12;;;;;;;10.68;4.60;;;;;;;-4.26;80.81;102447.72;4960467;28;20093;-65
2024/01/21 04:11:41;;;;;;;11.83;4.50;;;;;;;-4.22;81.37;102449.94;4958191;28;20035;-65
2024/01/21 04:14:06;;;;;;;11.25;3.88;;;;;;;-4.21;80.91;102433.75;4963766;28;20043;-67
2024/01/21 04:16:32;;;;;;;11.47;4.47;;;;;;;-4.17;80.86;102429.16;4963381;28;20054;-64
2024/01/21 04:18:57;;;;;;;10.82;4.65;;;;;;;-4.13;80.83;102423.63;4964002;28;20073;-69
2024/01/21 04:21:22;;;;;;;10.30;4.20;;;;;;;-4.09;80.79;102422.34;4956028;28;20053;-67
2024/01/21 04:23:48;;;;;;;10.07;3.80;;;;;;;-4.07;80.04;102413.16;4953498;28;20557;-71
2024/01/21 04:26:13;;;;;;;12.93;4.37;;;;;;;-4.04;79.94;102409.28;4955744;28;20047;-69
2024/01/21 04:28:39;;;;;;;10.53;4.17;;;;;;;-4.02;78.96;102412.06;4962526;28;20492;-65
2024/01/21 04:31:05;;;;;;;11.02;3.90;;;;;;;-3.97;79.50;102409.34;4976930;28;20039;-64
2024/01/21 04:33:31;;;;;;;8.97;3.23;;;;;;;-3.95;78.98;102401.78;4969176;28;20039;-66
2024/01/21 04:35:56;;;;;;;11.45;4.35;;;;;;;-3.92;78.40;102408.25;4962059;28;20100;-62
2024/01/21 04:38:23;;;;;;;10.67;3.83;;;;;;;-3.87;79.09;102400.16;4962149;28;20142;-65
2024/01/21 04:40:49;;;;;;;10.80;4.90;;;;;;;-3.84;78.48;102395.34;4963270;28;20104;-67
2024/01/21 04:43:14;;;;;;;10.33;4.17;;;;;;;-3.83;78.06;102381.72;4965143;28;20395;-68
2024/01/21 04:45:40;;;;;;;9.20;3.90;;;;;;;-3.80;77.46;102392.44;4971090;28;20038;-64
2024/01/21 04:48:06;;;;;;;11.38;4.03;;;;;;;-3.78;78.27;102393.53;4965124;28;20042;-68
2024/01/21 04:50:31;;;;;;;9.43;3.63;;;;;;;-3.76;77.61;102400.75;4964880;28;20054;-70
2024/01/21 04:52:56;;;;;;;12.43;5.73;;;;;;;-3.73;77.83;102407.94;4963845;28;20031;-66
2024/01/21 04:55:22;;;;;;;9.18;3.60;;;;;;;-3.69;77.30;102412.72;4964012;28;20044;-64
2024/01/21 04:57:47;;;;;;;12.60;5.10;;;;;;;-3.67;77.64;102414.78;4965869;28;20121;-69
2024/01/21 05:00:13;;;;;;;10.83;4.07;;;;;;;-3.66;77.40;102415.72;4963925;28;20177;-67
2024/01/21 05:02:38;;;;;;;10.45;3.85;;;;;;;-3.66;76.47;102426.03;4966785;28;20041;-68
2024/01/21 05:05:04;;;;;;;12.00;4.20;;;;;;;-3.65;76.14;102410.72;4971677;28;20034;-65
2024/01/21 05:07:29;;;;;;;13.27;4.37;;;;;;;-3.62;76.49;102407.59;4963817;28;20030;-70
2024/01/21 05:09:55;;;;;;;10.07;3.57;;;;;;;-3.61;76.00;102414.63;4963365;28;20585;-65
2024/01/21 05:12:20;;;;;;;9.85;4.07;;;;;;;-3.59;76.08;102418.28;4962453;28;20034;-64
2024/01/21 05:14:45;;;;;;;12.30;3.77;;;;;;;-3.56;76.66;102410.94;4963563;28;20523;-66
2024/01/21 05:17:11;;;;;;;10.37;4.30;;;;;;;-3.56;76.52;102406.69;4963999;28;20118;-64
2024/01/21 05:19:37;;;;;;;10.40;4.00;;;;;;;-3.53;76.26;102408.72;4964119;28;20107;-70
2024/01/21 05:22:02;;;;;;;9.27;3.60;;;;;;;-3.50;76.64;102407.44;4964403;28;20070;-64
2024/01/21 05:24:27;;;;;;;13.10;4.00;;;;;;;-3.47;76.94;102396.56;4963854;28;20743;-68
2024/01/21 05:26:53;;;;;;;10.23;3.83;;;;;;;-3.44;76.66;102399.50;4971126;28;20503;-65
2024/01/21 05:29:18;;;;;;;9.03;3.27;;;;;;;-3.42;76.49;102399.72;4963359;28;20034;-68
2024/01/21 05:31:44;;;;;;;11.67;4.40;;;;;;;-3.41;75.80;102396.38;4962530;28;20693;-66
2024/01/21 05:34:10;;;;;;;13.65;4.53;;;;;;;-3.41;76.19;102392.16;4970649;28;20031;-66
2024/01/21 05:36:35;;;;;;;12.10;4.10;;;;;;;-3.39;75.54;102395.81;4962832;28;20180;-68
2024/01/21 05:39:01;;;;;;;12.40;3.57;;;;;;;-3.36;75.98;102403.97;4963321;28;20046;-67
2024/01/21 05:41:28;;;;;;;10.87;4.53;;;;;;;-3.35;75.98;102398.03;4963536;28;20125;-67
2024/01/21 05:43:53;;;;;;;10.27;4.15;;;;;;;-3.32;75.76;102390.69;4962292;28;20100;-68
2024/01/21 05:46:19;;;;;;;8.90;3.77;;;;;;;-3.33;75.29;102385.31;4962132;28;20054;-65
2024/01/21 05:48:44;;;;;;;9.50;4.30;;;;;;;-3.31;75.66;102383.84;4963544;28;20042;-68
2024/01/21 05:51:09;;;;;;;10.07;4.10;;;;;;;-3.30;75.52;102378.84;4962529;28;20550;-65
2024/01/21 05:53:35;;;;;;;10.40;3.53;;;;;;;-3.28;75.15;102372.22;4960620;28;20035;-63
2024/01/21 05:56:00;;;;;;;12.20;4.40;;;;;;;-3.27;75.01;102367.97;4954989;28;20477;-69
2024/01/21 05:58:26;;;;;;;12.13;4.57;;;;;;;-3.29;74.96;102356.53;4962744;28;20106;-66
2024/01/21 06:00:51;;;;;;;12.13;3.87;;;;;;;-3.28;75.37;102351.56;4965351;28;20614;-64
2024/01/21 06:03:16;;;;;;;14.77;4.30;;;;;;;-3.25;75.12;102353.56;4964079;28;20027;-62
2024/01/21 06:05:42;;;;;;;8.77;3.80;;;;;;;-3.21;75.31;102360.97;4962297;28;20049;-63
2024/01/21 06:08:07;;;;;;;10.03;4.10;;;;;;;-3.20;75.03;102355.03;4963464;28;20039;-62
2024/01/21 06:10:32;;;;;;;9.00;3.77;;;;;;;-3.17;75.02;102358.00;4964488;28;20167;-68
2024/01/21 06:12:58;;;;;;;12.73;4.63;;;;;;;-3.18;74.98;102356.16;4965403;28;20133;-63
2024/01/21 06:15:23;;;;;;;11.60;3.85;;;;;;;-3.16;75.07;102349.53;4962296;28;20042;-68
2024/01/21 06:17:51;;;;;;;8.20;3.37;;;;;;;-3.18;74.61;102341.59;4962989;28;20051;-66
2024/01/21 06:20:17;;;;;;;9.00;3.58;;;;;;;-3.16;74.41;102340.09;4961471;28;20042;-64
2024/01/21 06:22:42;;;;;;;10.67;4.33;;;;;;;-3.11;74.22;102349.31;4962183;28;20034;-66
2024/01/21 06:25:08;;;;;;;10.63;3.47;;;;;;;-3.08;74.84;102346.19;4961288;28;20225;-66
2024/01/21 06:27:33;;;;;;;12.18;4.63;;;;;;;-3.10;74.72;102343.41;4962710;28;20038;-69
2024/01/21 06:30:13;;;;;;;11.03;3.80;;;;;;;-3.09;74.21;102337.50;4960780;28;20046;-65
2024/01/21 06:32:39;;;;;;;12.45;4.70;;;;;;;-3.07;74.12;102340.28;4962497;28;20047;-66
2024/01/21 06:35:05;;;;;;;10.30;3.67;;;;;;;-3.03;74.68;102344.16;4977343;28;20035;-63
2024/01/21 06:37:30;;;;;;;11.55;3.97;;;;;;;-3.01;74.33;102350.44;4968134;28;20039;-63
2024/01/21 06:39:56;;;;;;;9.73;3.30;;;;;;;-3.00;74.52;102350.59;4962113;28;20556;-63
2024/01/21 06:42:21;;;;;;;9.70;3.60;;;;;;;-2.99;74.46;102343.78;4962638;28;20042;-62
2024/01/21 06:44:46;;;;;;;9.87;3.77;;;;;;;-2.97;74.05;102343.22;4968177;28;20039;-61
2024/01/21 06:47:12;;;;;;;11.90;3.63;;;;;;;-2.95;73.95;102341.72;4962618;28;20290;-61
2024/01/21 06:49:37;;;;;;;11.73;4.90;;;;;;;-2.91;73.59;102348.22;4992389;28;20040;-63
2024/01/21 06:52:04;;;;;;;8.63;3.30;;;;;;;-2.88;73.88;102343.41;4964408;28;20507;-67
2024/01/21 06:54:29;;;;;;;10.60;4.35;;;;;;;-2.90;73.14;102338.03;4960370;28;20495;-67
2024/01/21 06:56:55;;;;;;;9.57;4.30;;;;;;;-2.85;73.03;102341.16;4976708;28;20047;-65
2024/01/21 06:59:20;;;;;;;11.00;3.57;;;;;;;-2.81;72.73;102336.53;4963748;28;20054;-62
2024/01/21 07:01:45;;;;;;;9.77;3.37;;;;;;;-2.79;72.88;102336.72;4965466;28;20459;-63
2024/01/21 07:04:12;;;;;;;9.40;3.77;;;;;;;-2.76;72.45;102326.72;4961090;28;20351;-65
2024/01/21 07:06:39;;;;;;;10.82;4.13;;;;;;;-2.71;72.47;102323.03;4961097;28;20041;-64
2024/01/21 07:09:04;;;;;;;11.27;3.90;;;;;;;-2.68;72.77;102324.34;4963031;28;20066;-62
2024/01/21 07:11:35;;;;;;;9.20;3.75;;;;;;;-2.65;72.36;102318.59;4961939;28;20093;-63
2024/01/21 07:14:01;;;;;;;8.70;3.33;;;;;;;-2.59;72.09;102329.66;4961204;28;20061;-63
2024/01/21 07:16:26;;;;;;;7.57;2.87;;;;;;;-2.53;72.26;102325.22;4960903;28;20491;-64
2024/01/21 07:18:51;;;;;;;9.27;3.50;;;;;;;-2.47;72.59;102325.00;4961577;28;20564;-63
2024/01/21 07:21:17;;;;;;;9.23;3.40;;;;;;;-2.42;72.62;102316.13;4960239;28;20384;-65
2024/01/21 07:23:42;;;;;;;8.40;2.97;;;;;;;-2.42;72.28;102304.09;4962006;28;20558;-64
2024/01/21 07:26:08;;;;;;;8.73;3.20;;;;;;;-2.40;72.00;102307.78;4961474;28;20039;-63
2024/01/21 07:28:33;;;;;;;13.15;3.55;;;;;;;-2.36;71.98;102315.16;4961656;28;20612;-66
2024/01/21 07:30:58;;;;;;;9.53;3.03;;;;;;;-2.33;71.69;102320.69;4961521;28;20039;-66
2024/01/21 07:33:24;;;;;;;9.17;3.30;;;;;;;-2.31;71.10;102313.09;4969742;28;20609;-67
2024/01/21 07:35:50;;;;;;;11.60;3.00;;;;;;;-2.27;70.94;102318.81;4978172;28;20123;-65
2024/01/21 07:38:17;;;;;;;10.10;2.80;;;;;;;-2.23;70.79;102323.63;4968505;28;20534;-63
2024/01/21 07:40:42;;;;;;;8.70;2.95;;;;;;;-2.17;70.79;102325.97;4979917;28;20753;-64
2024/01/21 07:43:10;;;;;;;9.70;3.23;;;;;;;-2.12;70.88;102318.75;4962346;28;20053;-69
2024/01/21 07:45:35;;;;;;;7.45;2.65;;;;;;;-2.09;70.66;102300.97;4958693;28;20050;-67
2024/01/21 07:48:01;;;;;;;11.40;3.63;;;;;;;-2.07;70.05;102295.22;4961295;28;20584;-63
2024/01/21 07:50:26;;;;;;;9.63;2.97;;;;;;;-2.03;69.49;102292.25;4958502;28;20468;-64
2024/01/21 07:52:52;;;;;;;8.43;2.92;;;;;;;-1.95;69.38;102300.88;4958068;28;20038;-63
2024/01/21 07:55:17;;;;;;;9.00;3.20;;;;;;;-1.90;68.94;102304.94;4959389;28;20107;-63
2024/01/21 07:57:43;;;;;;;7.03;2.80;;;;;;;-1.83;68.71;102312.66;4965924;28;20038;-65
2024/01/21 08:00:09;;;;;;;9.73;3.03;;;;;;;-1.77;68.75;102302.97;4961723;28;20495;-65
2024/01/21 08:02:34;;;;;;;7.43;2.73;;;;;;;-1.68;68.39;102292.78;4965081;28;20293;-63
2024/01/21 08:05:00;;;;;;;10.10;3.03;;;;;;;-1.61;67.49;102290.09;4962129;28;20113;-68
2024/01/21 08:07:26;;;;;;;8.23;2.63;;;;;;;-1.55;67.77;102291.72;4960277;28;20112;-68
2024/01/21 08:09:52;;;;;;;7.13;2.53;;;;;;;-1.48;67.76;102299.44;4960738;28;20073;-66
2024/01/21 08:12:17;;;;;;;7.20;2.40;;;;;;;-1.41;67.59;102291.63;4961267;28;20135;-64
2024/01/21 08:14:43;;;;;;;8.07;2.83;;;;;;;-1.34;67.79;102296.75;4960471;28;20047;-68
2024/01/21 08:17:08;;;;;;;5.63;2.10;;;;;;;-1.25;67.18;102298.50;4964145;28;20402;-64
2024/01/21 08:19:37;;;;;;;5.93;1.87;;;;;;;-1.18;67.28;102276.03;4965196;28;20051;-64
2024/01/21 08:22:03;;;;;;;8.60;3.15;;;;;;;-0.94;69.04;102272.66;4962912;28;20046;-67
2024/01/21 08:24:28;;;;;;;6.80;2.85;;;;;;;-0.57;67.17;102262.94;4965238;28;20031;-71
2024/01/21 08:26:53;;;;;;;8.97;2.73;;;;;;;-0.25;65.78;102252.53;4966828;28;20106;-67
2024/01/21 08:29:19;;;;;;;6.40;2.30;;;;;;;0.10;63.44;102256.28;4963940;28;20769;-68
2024/01/21 08:31:44;;;;;;;7.60;2.70;;;;;;;0.21;61.80;102258.31;4964962;28;20112;-68
2024/01/21 08:34:10;;;;;;;9.63;3.03;;;;;;;0.29;58.79;102242.81;4970953;28;20114;-71
2024/01/21 08:36:36;;;;;;;9.73;3.15;;;;;;;0.38;58.87;102243.75;4966446;28;20071;-70
2024/01/21 08:39:05;;;;;;;7.18;2.35;;;;;;;0.47;58.59;102245.47;4961040;28;20409;-72
2024/01/21 08:41:32;;;;;;;6.18;2.00;;;;;;;0.50;58.86;102259.69;4969057;28;20045;-64
2024/01/21 08:43:57;;;;;;;6.10;2.10;;;;;;;0.24;57.51;102254.41;4977167;28;20038;-62
2024/01/21 08:46:23;;;;;;;6.63;2.07;;;;;;;0.17;57.67;102248.38;4969256;28;20027;-64
2024/01/21 08:48:48;;;;;;;5.60;1.83;;;;;;;0.14;57.53;102248.97;4966470;28;20106;-64
2024/01/21 08:51:14;;;;;;;5.60;1.93;;;;;;;0.10;57.49;102244.19;4964735;28;20125;-65
2024/01/21 08:53:39;;;;;;;7.47;1.90;;;;;;;0.10;57.32;102236.41;4971319;28;20104;-63
2024/01/21 08:56:05;;;;;;;5.97;2.37;;;;;;;0.13;56.16;102226.34;4964453;28;20135;-62
2024/01/21 08:58:31;;;;;;;7.20;2.40;;;;;;;0.10;55.96;102225.13;4967169;28;21024;-64
2024/01/21 09:00:56;;;;;;;7.40;2.17;;;;;;;0.11;55.99;102229.53;4981645;28;20039;-60
2024/01/21 09:03:22;;;;;;;6.67;2.30;;;;;;;0.13;55.82;102233.22;4964609;28;20030;-64
2024/01/21 09:05:47;;;;;;;8.43;2.17;;;;;;;0.13;56.00;102244.53;4964793;28;20042;-62
2024/01/21 09:08:12;;;;;;;4.83;1.70;;;;;;;0.19;56.85;102244.28;4964180;28;20046;-62
2024/01/21 09:10:38;;;;;;;6.50;2.13;;;;;;;0.23;56.67;102241.22;4964280;28;20933;-64
2024/01/21 09:13:03;;;;;;;5.15;1.80;;;;;;;0.23;55.34;102231.75;4964547;28;20039;-61
2024/01/21 09:15:29;;;;;;;5.80;2.20;;;;;;;0.28;55.84;102240.03;4962596;28;20061;-62
2024/01/21 09:17:55;;;;;;;5.15;1.65;;;;;;;0.33;55.76;102233.63;4966892;28;20121;-64
2024/01/21 09:20:20;;;;;;;6.43;1.87;;;;;;;0.37;56.18;102241.91;4964321;28;20465;-62
2024/01/21 09:22:45;;;;;;;6.67;2.10;;;;;;;0.43;56.14;102241.66;4964113;28;20682;-64
2024/01/21 09:25:11;;;;;;;6.57;1.80;;;;;;;0.47;54.08;102248.06;4964829;28;20038;-64
2024/01/21 09:27:36;;;;;;;7.55;1.45;;;;;;;0.58;54.40;102244.91;4963526;28;20049;-60
2024/01/21 09:30:02;;;;;;;4.60;1.27;;;;;;;0.66;54.77;102252.75;4955900;28;20031;-63
2024/01/21 09:32:28;;;;;;;8.50;1.90;;;;;;;0.70;54.63;102240.97;4964113;28;20030;-62
2024/01/21 09:34:53;;;;;;;6.13;1.95;;;;;;;0.68;52.74;102237.31;4970799;28;20134;-62
2024/01/21 09:37:18;;;;;;;5.20;1.70;;;;;;;0.69;51.65;102236.56;4972846;28;20045;-61
2024/01/21 09:39:44;;;;;;;6.30;1.70;;;;;;;0.78;52.84;102247.91;4971116;28;20134;-62
2024/01/21 09:42:09;;;;;;;6.10;1.77;;;;;;;0.87;53.17;102243.66;4964704;28;20125;-62
2024/01/21 09:44:35;;;;;;;5.30;1.97;;;;;;;0.94;53.42;102232.19;4964497;28;20282;-61
2024/01/21 09:47:02;;;;;;;6.53;1.80;;;;;;;1.02;53.42;102223.47;4962297;28;20041;-65
2024/01/21 09:52:01;;;;;;;8.30;1.80;;;;;;;1.08;52.60;102199.00;5065766;27;20367;-65
2024/01/21 09:54:26;;;;;;;5.30;1.35;;;;;;;1.07;51.09;102191.03;5063923;28;20033;-64
2024/01/21 09:56:51;;;;;;;5.17;1.23;;;;;;;1.10;51.59;102187.06;5041302;28;20106;-62
2024/01/21 09:59:17;;;;;;;5.87;1.70;;;;;;;1.11;50.44;102181.09;5062080;28;20040;-64
2024/01/21 10:01:43;;;;;;;10.73;1.45;;;;;;;1.09;49.00;102180.00;5063937;28;20098;-64
2024/01/21 10:04:14;;;;;;;6.15;1.58;;;;;;;1.12;49.84;102171.63;5071158;28;20051;-60
2024/01/21 10:06:39;;;;;;;10.33;1.70;;;;;;;1.09;49.59;102164.41;5073174;28;20042;-61
2024/01/21 10:09:16;;;;;;;8.07;1.20;;;;;;;1.11;48.69;102151.56;5067933;28;20115;-62
2024/01/21 10:11:42;;;;;;;5.25;1.85;;;;;;;1.12;48.58;102149.13;5067716;28;20040;-64
2024/01/21 10:14:08;;;;;;;5.15;1.30;;;;;;;1.16;49.27;102151.25;5068107;28;20040;-65
2024/01/21 10:16:34;;;;;;;10.50;1.30;;;;;;;1.19;49.90;102154.16;5062321;28;20779;-66
2024/01/21 10:19:00;;;;;;;8.10;1.73;;;;;;;1.22;48.98;102148.34;5069630;28;20075;-65
2024/01/21 10:21:25;;;;;;;6.90;1.83;;;;;;;1.30;48.71;102134.41;5066646;28;20032;-62
2024/01/21 10:23:51;;;;;;;7.20;1.27;;;;;;;1.30;48.89;102137.94;5062336;28;20071;-65
2024/01/21 10:26:16;;;;;;;7.03;1.60;;;;;;;1.34;48.73;102146.03;5066677;28;20111;-62
2024/01/21 10:28:42;;;;;;;6.17;1.40;;;;;;;1.36;48.30;102144.50;5063990;28;20297;-65
2024/01/21 10:31:08;;;;;;;6.00;1.53;;;;;;;1.37;47.80;102141.16;5056041;28;20079;-63
2024/01/21 10:33:33;;;;;;;7.00;1.40;;;;;;;1.44;48.57;102151.38;5071007;28;20040;-63
2024/01/21 10:36:01;;;;;;;5.23;1.17;;;;;;;1.53;49.52;102150.59;5063984;28;20060;-61
2024/01/21 10:38:51;;;;;;;4.78;1.45;;;;;;;1.52;47.75;102140.97;5056499;28;20040;-61
2024/01/21 10:41:28;;;;;;;5.00;1.37;;;;;;;1.57;48.58;102147.56;5050691;28;20040;-64
2024/01/21 10:43:56;;;;;;;5.75;1.50;;;;;;;1.58;47.57;102141.56;5060129;28;20036;-63
2024/01/21 10:46:25;;;;;;;5.13;1.40;;;;;;;1.65;47.95;102140.50;5053929;28;20048;-67
2024/01/21 10:48:54;;;;;;;8.77;1.45;;;;;;;1.71;47.71;102144.63;5058670;28;20103;-65
2024/01/21 10:51:20;;;;;;;8.43;1.40;;;;;;;1.83;48.13;102138.75;5068793;28;20050;-62
2024/01/21 10:53:46;;;;;;;5.80;1.47;;;;;;;1.91;47.84;102135.22;5059935;28;20112;-64
2024/01/21 10:56:12;;;;;;;5.03;1.00;;;;;;;1.91;47.14;102119.59;5054116;28;20094;-62
2024/01/21 10:58:37;;;;;;;3.97;1.10;;;;;;;2.00;47.24;102121.41;5053490;28;20029;-66
2024/01/21 11:01:03;;;;;;;5.55;1.15;;;;;;;2.12;47.13;102119.94;5071057;28;20080;-64
2024/01/21 11:03:31;;;;;;;8.07;1.43;;;;;;;2.22;47.01;102102.63;5046445;28;20142;-64
2024/01/21 11:06:03;;;;;;;5.28;1.23;;;;;;;2.23;46.72;102099.22;5044602;28;20591;-65
2024/01/21 11:08:29;;;;;;;5.05;1.30;;;;;;;2.28;46.41;102084.94;5045418;28;20641;-64
2024/01/21 11:11:16;;;;;;;4.60;1.20;;;;;;;2.34;45.46;102094.25;5038303;28;20034;-65
2024/01/21 11:13:46;;;;;;;5.63;1.30;;;;;;;2.41;45.71;102086.25;5050330;28;20043;-64
2024/01/21 11:16:32;;;;;;;4.03;1.10;;;;;;;2.38;45.00;102079.81;5033589;28;20064;-63
2024/01/21 11:19:06;;;;;;;4.22;1.10;;;;;;;2.46;45.51;102091.91;5037119;28;20044;-63
2024/01/21 11:21:33;;;;;;;6.85;1.55;;;;;;;2.47;44.59;102091.09;5045076;28;20544;-63
2024/01/21 11:24:03;;;;;;;5.05;1.35;;;;;;;2.52;43.54;102100.28;5044828;28;20116;-64